Date,TemperatureHighF,TemperatureAvgF,TemperatureLowF,DewpointHighF,DewpointAvgF,DewpointLowF,HumidityHigh,HumidityAvg,HumidityLow,PressureMaxIn,PressureMinIn,WindSpeedMaxMPH,WindSpeedAvgMPH,GustSpeedMaxMPH,PrecipitationSumIn
2013-10-1,91,75,61,69,62,57,98,67,41,29.87,29.76,15,9,0,0.00
2013-10-2,89,77,67,74,69,63,98,77,55,29.89,29.76,17,9,0,0.02
2013-10-3,92,80,70,75,71,67,98,76,47,29.81,29.65,19,11,0,0.18
2013-10-4,91,81,64,72,70,57,98,71,52,29.87,29.66,20,11,0,2.30
2013-10-5,72,61,52,55,42,37,74,53,28,30.14,29.89,19,10,0,2.63
2013-10-6,81,62,44,80,40,-2,99,50,4,30.16,30.02,19,6,0,0.09
2013-10-7,84,67,50,52,48,43,94,55,25,30.16,30.03,8,2,0,0.00
2013-10-8,86,69,52,50,46,43,73,47,23,30.05,29.88,13,7,0,0.00
2013-10-9,84,69,53,55,52,49,92,57,34,29.98,29.86,17,9,0,0.00
2013-10-10,86,76,65,65,62,55,77,61,47,29.93,29.74,20,11,0,0.06
2013-10-11,90,75,64,90,62,9,99,72,6,29.82,29.71,18,6,0,0.02
2013-10-12,79,67,58,56,50,43,73,56,43,30.12,29.82,17,7,0,0.05
2013-10-13,74,66,57,70,62,52,98,86,74,30.24,30.08,18,7,0,0.04
2013-10-14,78,72,68,74,70,51,98,95,53,30.10,29.80,13,7,0,0.20
2013-10-15,71,59,52,71,49,43,98,71,53,30.11,29.85,21,9,0,0.31
2013-10-16,56,51,43,46,42,40,93,71,58,30.18,30.06,13,5,0,0.00
2013-10-17,75,56,37,51,45,37,98,70,31,30.07,29.90,9,1,0,0.00
2013-10-18,60,50,38,56,47,37,98,90,67,30.20,29.88,22,7,0,0.31
2013-10-19,70,50,33,47,37,26,98,68,26,30.20,29.99,12,3,0,0.00
2013-10-20,74,68,45,55,50,40,93,56,47,29.99,29.75,18,7,0,0.00
2013-10-21,67,57,47,54,46,40,98,68,40,30.12,29.81,21,8,0,1.16
2013-10-22,84,60,41,49,42,39,93,59,21,30.13,29.98,13,4,0,0.00
2013-10-23,87,65,45,87,49,26,99,62,11,30.08,29.94,15,3,0,0.00
2013-10-24,68,58,49,52,46,42,90,67,45,30.30,30.04,18,8,0,0.15
2013-10-25,58,46,42,52,40,37,88,77,74,30.37,30.14,11,2,0,0.00
2013-10-26,76,62,53,65,56,48,98,83,48,30.15,29.99,16,7,0,0.17
2013-10-27,74,58,41,56,43,30,98,64,22,30.14,29.92,10,4,0,0.00
2013-10-28,71,62,54,70,61,15,99,95,21,30.00,29.86,21,9,0,0.11
2013-10-29,83,74,68,72,69,67,98,87,65,29.95,29.84,17,8,0,0.00
2013-10-30,82,74,66,72,70,57,98,89,43,29.91,29.68,17,8,0,0.74
2013-10-31,71,62,53,65,50,42,98,68,36,29.82,29.61,24,9,0,3.83